Time;durP1;ratioP1;P1;durP2;ratioP2;P2;SDS_P1;SDS_P2;PMS_P1;PMS_P2;Temp;Humidity;BMP_temperature;BMP_pressure;BME280_temperature;BME280_humidity;BME280_pressure;Samples;Min_cycle;Max_cycle;Signal;HPM_P1;HPM_P2
2021/11/01 00:01:55;;;;;;;13.45;2.50;;;12.60;99.90;;;;;;5077249;28;20036;-83
2021/11/01 00:04:21;;;;;;;10.82;1.98;;;12.50;99.90;;;;;;5059087;28;20033;-84
2021/11/01 00:06:47;;;;;;;16.77;2.42;;;12.50;99.90;;;;;;5058689;28;20492;-86
2021/11/01 00:09:13;;;;;;;18.67;2.55;;;12.50;99.90;;;;;;5058591;28;20128;-85
2021/11/01 00:11:38;;;;;;;15.20;2.25;;;12.50;99.90;;;;;;5058855;28;20055;-85
2021/11/01 00:14:04;;;;;;;10.07;2.38;;;12.40;99.90;;;;;;5057966;28;20028;-85
2021/11/01 00:16:30;;;;;;;8.90;1.70;;;12.40;99.90;;;;;;5058873;28;20454;-85
2021/11/01 00:18:56;;;;;;;12.10;2.20;;;12.40;99.90;;;;;;5057553;28;20157;-83
2021/11/01 00:21:24;;;;;;;12.82;2.65;;;12.30;99.90;;;;;;5077053;28;20056;-84
2021/11/01 00:23:51;;;;;;;7.90;1.67;;;12.30;99.90;;;;;;5058781;28;20025;-84
2021/11/01 00:26:17;;;;;;;9.00;2.13;;;12.30;99.90;;;;;;5056816;28;20074;-85
2021/11/01 00:28:44;;;;;;;11.75;1.75;;;12.30;99.90;;;;;;5038377;28;20032;-85
2021/11/01 00:31:11;;;;;;;15.43;2.58;;;12.30;99.90;;;;;;5038639;28;20230;-84
2021/11/01 00:33:37;;;;;;;11.70;1.98;;;12.30;99.90;;;;;;5076897;28;20032;-85
2021/11/01 00:36:04;;;;;;;13.07;1.95;;;12.30;99.90;;;;;;5077537;28;20052;-85
2021/11/01 00:38:29;;;;;;;12.02;2.20;;;12.30;99.90;;;;;;5059268;28;20032;-86
2021/11/01 00:40:55;;;;;;;8.70;1.83;;;12.30;99.90;;;;;;5075820;28;20036;-85
2021/11/01 00:43:21;;;;;;;10.60;1.90;;;12.20;99.90;;;;;;5041969;28;20132;-85
2021/11/01 00:45:47;;;;;;;10.20;2.35;;;12.20;99.90;;;;;;5076577;28;20025;-85
2021/11/01 00:48:13;;;;;;;14.23;2.38;;;12.20;99.90;;;;;;5058434;28;20028;-85
2021/11/01 00:50:39;;;;;;;8.55;1.63;;;12.20;99.90;;;;;;5075388;28;20164;-84
2021/11/01 00:53:06;;;;;;;11.63;1.77;;;12.20;99.90;;;;;;5058063;28;20032;-85
2021/11/01 00:55:37;;;;;;;11.93;2.00;;;12.20;99.90;;;;;;5075828;28;20029;-85
2021/11/01 00:58:04;;;;;;;11.68;1.98;;;12.20;99.90;;;;;;5077084;28;20036;-84
2021/11/01 01:00:30;;;;;;;8.10;1.50;;;12.20;99.90;;;;;;5057170;28;20108;-85
2021/11/01 01:02:57;;;;;;;12.35;1.90;;;12.20;99.90;;;;;;5040854;28;20036;-84
2021/11/01 01:05:23;;;;;;;9.32;1.70;;;12.20;99.90;;;;;;5076009;28;20052;-85
2021/11/01 01:07:49;;;;;;;10.95;1.98;;;12.20;99.90;;;;;;5058303;28;20083;-84
2021/11/01 01:10:15;;;;;;;15.93;2.45;;;12.10;99.90;;;;;;5075499;28;20408;-84
2021/11/01 01:12:42;;;;;;;9.85;1.95;;;12.10;99.90;;;;;;5041314;28;20032;-84
2021/11/01 01:15:11;;;;;;;12.57;1.63;;;12.10;99.90;;;;;;5076279;28;20036;-84
2021/11/01 01:17:38;;;;;;;12.43;2.13;;;12.10;99.90;;;;;;5076141;28;20033;-85
2021/11/01 01:20:09;;;;;;;10.55;1.83;;;12.00;99.90;;;;;;5057725;28;20108;-84
2021/11/01 01:22:36;;;;;;;10.13;1.70;;;12.00;99.90;;;;;;5057980;28;20035;-84
2021/11/01 01:25:13;;;;;;;9.85;1.60;;;12.10;99.90;;;;;;5058164;28;20029;-83
2021/11/01 01:27:44;;;;;;;8.05;1.90;;;12.00;99.90;;;;;;5058351;28;20021;-85
2021/11/01 01:30:12;;;;;;;10.23;1.90;;;12.00;99.90;;;;;;5075739;28;20029;-85
2021/11/01 01:32:38;;;;;;;8.98;1.85;;;11.90;99.90;;;;;;5058516;28;20399;-83
2021/11/01 01:35:04;;;;;;;9.80;1.70;;;11.90;99.90;;;;;;5076622;28;20477;-85
2021/11/01 01:37:30;;;;;;;12.27;2.28;;;12.00;99.90;;;;;;5058853;28;20158;-85
2021/11/01 01:39:56;;;;;;;13.57;2.22;;;12.00;99.90;;;;;;5076224;28;20506;-84
2021/11/01 01:42:22;;;;;;;9.60;2.13;;;11.90;99.90;;;;;;5042243;28;20063;-85
2021/11/01 01:44:48;;;;;;;15.18;1.90;;;11.90;99.90;;;;;;5059079;28;20025;-84
2021/11/01 01:47:13;;;;;;;14.05;2.35;;;11.90;99.90;;;;;;5077888;28;20024;-85
2021/11/01 01:49:39;;;;;;;12.90;2.60;;;11.90;99.90;;;;;;5076414;28;20035;-86
2021/11/01 01:52:05;;;;;;;11.93;2.35;;;11.90;99.90;;;;;;5058287;28;20111;-85
2021/11/01 01:54:31;;;;;;;9.85;2.13;;;11.90;99.90;;;;;;5056590;28;20024;-85
2021/11/01 01:56:57;;;;;;;10.20;2.05;;;11.90;99.90;;;;;;5056826;28;20044;-85
2021/11/01 01:59:23;;;;;;;10.60;2.10;;;11.90;99.90;;;;;;5039557;28;20033;-83
2021/11/01 02:01:50;;;;;;;9.10;2.13;;;11.90;99.90;;;;;;5057778;28;20032;-85
2021/11/01 02:04:25;;;;;;;9.48;2.38;;;11.80;99.90;;;;;;5040923;28;20028;-84
2021/11/01 02:07:13;;;;;;;11.63;2.27;;;11.90;99.90;;;;;;5057451;28;20036;-84
2021/11/01 02:09:57;;;;;;;10.18;2.30;;;11.80;99.90;;;;;;5056248;28;20036;-85
2021/11/01 02:12:39;;;;;;;9.33;1.97;;;11.90;99.90;;;;;;5075517;28;20028;-84
2021/11/01 02:15:25;;;;;;;10.73;2.20;;;11.80;99.90;;;;;;5075320;28;20025;-84
2021/11/01 02:17:55;;;;;;;9.75;1.90;;;11.80;99.90;;;;;;5039968;28;20404;-83
2021/11/01 02:20:40;;;;;;;9.80;2.57;;;11.80;99.90;;;;;;5038143;28;20081;-84
2021/11/01 02:23:19;;;;;;;10.68;2.35;;;11.80;99.90;;;;;;5073833;28;20032;-85
2021/11/01 02:25:52;;;;;;;14.85;2.65;;;11.80;99.90;;;;;;5039085;28;20035;-83
2021/11/01 02:28:24;;;;;;;11.57;2.88;;;11.70;99.90;;;;;;5074317;28;20036;-84
2021/11/01 02:30:51;;;;;;;9.70;2.47;;;11.80;99.90;;;;;;5073577;28;20426;-85
2021/11/01 02:33:20;;;;;;;9.65;2.20;;;11.80;99.90;;;;;;5058114;28;20063;-84
2021/11/01 02:35:46;;;;;;;8.55;2.60;;;11.70;99.90;;;;;;5075337;28;20052;-85
2021/11/01 02:38:14;;;;;;;11.60;2.40;;;11.70;99.90;;;;;;5042543;28;20439;-84
2021/11/01 02:40:41;;;;;;;12.93;2.37;;;11.70;99.90;;;;;;5076911;28;20102;-84
2021/11/01 02:43:07;;;;;;;7.63;2.10;;;11.70;99.90;;;;;;5043045;28;20111;-83
2021/11/01 02:45:34;;;;;;;10.32;1.90;;;11.70;99.90;;;;;;5060256;28;20568;-83
2021/11/01 02:48:00;;;;;;;8.93;1.90;;;11.70;99.90;;;;;;5078295;28;20100;-84
2021/11/01 02:50:26;;;;;;;8.73;1.77;;;11.80;99.90;;;;;;5041488;28;20040;-84
2021/11/01 02:52:52;;;;;;;7.87;2.20;;;11.70;99.90;;;;;;5058103;28;20036;-83
2021/11/01 02:55:20;;;;;;;7.43;1.77;;;11.70;99.90;;;;;;5056713;28;20036;-84
2021/11/01 02:57:46;;;;;;;8.23;2.13;;;11.70;99.90;;;;;;5057082;28;20033;-84
2021/11/01 03:00:15;;;;;;;6.97;1.60;;;11.80;99.90;;;;;;5074119;28;20480;-83
2021/11/01 03:02:42;;;;;;;8.05;2.53;;;11.70;99.90;;;;;;5057120;28;20071;-84
2021/11/01 03:05:15;;;;;;;9.77;1.60;;;11.70;99.90;;;;;;5040017;28;20033;-83
2021/11/01 03:07:42;;;;;;;11.83;1.70;;;11.70;99.90;;;;;;5039787;28;20028;-84
2021/11/01 03:10:10;;;;;;;9.87;1.57;;;11.70;99.90;;;;;;5055397;28;20032;-83
2021/11/01 03:12:38;;;;;;;7.00;1.73;;;11.70;99.90;;;;;;5055870;28;20450;-83
2021/11/01 03:15:09;;;;;;;8.07;1.67;;;11.70;99.90;;;;;;5056243;28;20033;-84
2021/11/01 03:17:40;;;;;;;10.23;2.30;;;11.70;99.90;;;;;;5073906;28;20064;-84
2021/11/01 03:20:14;;;;;;;9.50;2.05;;;11.70;99.90;;;;;;5055099;28;20028;-85
2021/11/01 03:22:44;;;;;;;9.30;1.90;;;11.70;99.90;;;;;;5040321;28;20469;-83
2021/11/01 03:25:21;;;;;;;10.27;1.87;;;11.70;99.90;;;;;;5055900;28;20025;-82
2021/11/01 03:27:53;;;;;;;11.57;2.30;;;11.70;99.90;;;;;;5074037;28;20044;-82
2021/11/01 03:30:20;;;;;;;7.50;2.00;;;11.60;99.90;;;;;;5084761;22;20052;-85
2021/11/01 03:32:48;;;;;;;7.85;1.63;;;11.70;99.90;;;;;;5069471;28;20075;-84
2021/11/01 03:35:15;;;;;;;8.53;1.83;;;11.60;99.90;;;;;;5054280;28;20029;-85
2021/11/01 03:37:44;;;;;;;7.13;1.87;;;11.60;99.90;;;;;;5053376;28;20263;-85
2021/11/01 03:40:15;;;;;;;10.30;1.85;;;11.60;99.90;;;;;;5051859;28;20128;-84
2021/11/01 03:42:42;;;;;;;8.30;1.63;;;11.60;99.90;;;;;;5053846;28;20032;-85
2021/11/01 03:45:09;;;;;;;9.43;2.00;;;11.60;99.90;;;;;;5052395;28;20029;-85
2021/11/01 03:47:48;;;;;;;9.03;1.90;;;11.60;99.90;;;;;;5054167;28;20021;-85
2021/11/01 03:52:51;;;;;;;13.73;1.83;;;11.60;99.90;;;;;;5068972;28;20040;-85
2021/11/01 03:55:19;;;;;;;6.00;1.53;;;11.60;99.90;;;;;;5052675;28;20045;-85
2021/11/01 03:57:46;;;;;;;8.53;1.53;;;11.60;99.90;;;;;;5036093;28;20123;-84
2021/11/01 04:00:14;;;;;;;9.47;1.80;;;11.60;99.90;;;;;;5053030;28;20452;-84
2021/11/01 04:02:40;;;;;;;8.20;1.70;;;11.50;99.90;;;;;;5051638;28;20032;-85
2021/11/01 04:05:06;;;;;;;9.77;2.20;;;11.50;99.90;;;;;;5051430;28;20029;-85
2021/11/01 04:07:33;;;;;;;9.30;1.70;;;11.50;99.90;;;;;;5052315;28;20116;-85
2021/11/01 04:10:00;;;;;;;9.13;2.87;;;11.50;99.90;;;;;;5034795;28;20032;-85
2021/11/01 04:12:26;;;;;;;12.13;1.83;;;11.50;99.90;;;;;;5051668;28;20539;-85
2021/11/01 04:15:09;;;;;;;8.87;1.63;;;11.50;99.90;;;;;;5053301;28;20045;-85
2021/11/01 04:17:41;;;;;;;11.60;1.70;;;11.50;99.90;;;;;;5053276;28;20059;-84
2021/11/01 04:20:32;;;;;;;10.73;1.90;;;11.50;99.90;;;;;;5034608;28;20147;-85
2021/11/01 04:23:04;;;;;;;7.53;1.73;;;11.50;99.90;;;;;;5053151;28;20033;-85
2021/11/01 04:25:31;;;;;;;11.03;1.63;;;11.50;99.90;;;;;;5035399;28;20025;-84
2021/11/01 04:27:59;;;;;;;11.63;2.10;;;11.50;99.90;;;;;;5035572;28;20033;-85
2021/11/01 04:30:28;;;;;;;9.93;2.00;;;11.50;99.90;;;;;;5051655;28;20100;-86
2021/11/01 04:32:57;;;;;;;9.55;2.40;;;11.50;99.90;;;;;;5070433;28;20075;-84
2021/11/01 04:35:26;;;;;;;9.33;2.33;;;11.50;99.90;;;;;;5069279;28;20041;-86
2021/11/01 04:38:02;;;;;;;5.95;1.85;;;11.50;99.90;;;;;;5035487;28;20044;-85
2021/11/01 04:43:21;;;;;;;9.53;2.50;;;11.50;99.90;;;;;;5068111;28;20029;-85
2021/11/01 04:54:00;;;;;;;8.83;2.03;;;11.40;99.90;;;;;;5069178;28;20030;-85
2021/11/01 04:56:26;;;;;;;11.17;2.03;;;11.40;99.90;;;;;;5038271;28;20028;-86
2021/11/01 04:58:53;;;;;;;10.00;2.40;;;11.40;99.90;;;;;;5070104;28;20082;-85
2021/11/01 05:01:38;;;;;;;9.73;1.97;;;11.50;99.90;;;;;;5037122;28;20040;-85
2021/11/01 05:04:09;;;;;;;6.87;1.40;;;11.40;99.90;;;;;;5037856;28;20029;-85
2021/11/01 05:06:41;;;;;;;6.13;1.73;;;11.40;99.90;;;;;;5037110;28;20044;-84
2021/11/01 05:09:10;;;;;;;6.67;1.70;;;11.40;99.90;;;;;;5037166;28;20032;-85
2021/11/01 05:11:47;;;;;;;6.00;1.55;;;11.40;99.90;;;;;;5070018;28;20025;-86
2021/11/01 05:14:15;;;;;;;9.23;2.20;;;11.40;99.90;;;;;;5038195;28;20614;-84
2021/11/01 05:19:34;;;;;;;6.38;1.55;;;11.40;99.90;;;;;;5049470;28;20033;-86
2021/11/01 05:22:33;;;;;;;5.80;1.70;;;11.40;99.90;;;;;;5032007;28;20033;-84
2021/11/01 05:24:57;;;;;;;7.30;1.80;;;11.10;99.90;;;;;;5030207;28;20113;-84
2021/11/01 05:28:10;;;;;;;11.43;2.03;;;11.10;99.90;;;;;;5014609;28;20034;-84
2021/11/01 05:30:17;;;;;;;10.70;2.10;;;11.10;99.90;;;;;;5027659;28;20101;-85
2021/11/01 05:32:53;;;;;;;5.87;1.77;;;11.20;99.90;;;;;;5014151;28;20034;-85
2021/11/01 05:35:20;;;;;;;9.77;1.97;;;11.10;99.90;;;;;;5018629;28;20083;-85
2021/11/01 05:37:45;;;;;;;9.07;1.70;;;11.10;99.90;;;;;;5067784;28;20071;-85
2021/11/01 05:40:11;;;;;;;5.93;1.53;;;11.10;99.90;;;;;;5050827;28;20060;-85
2021/11/01 05:42:37;;;;;;;10.97;2.20;;;11.20;99.90;;;;;;5067562;28;20056;-85
2021/11/01 05:45:03;;;;;;;6.90;1.90;;;11.20;99.90;;;;;;5050974;28;20177;-85
2021/11/01 05:47:29;;;;;;;6.53;1.90;;;11.10;99.90;;;;;;5036980;28;20442;-85
2021/11/01 05:49:56;;;;;;;7.60;1.67;;;11.20;99.90;;;;;;5053102;28;20040;-85
2021/11/01 05:52:27;;;;;;;11.57;1.70;;;11.20;99.90;;;;;;5053052;28;20029;-85
2021/11/01 05:54:57;;;;;;;9.97;1.80;;;11.20;99.90;;;;;;5070493;28;20044;-85
2021/11/01 06:03:21;;;;;;;8.13;1.57;;;11.20;99.90;;;;;;5031118;28;20381;-85
2021/11/01 06:13:31;;;;;;;6.53;1.47;;;11.30;99.90;;;;;;5055059;28;20037;-84
2021/11/01 06:15:59;;;;;;;6.93;1.90;;;11.20;99.90;;;;;;5053849;28;20029;-86
2021/11/01 06:18:38;;;;;;;11.30;1.93;;;11.20;99.90;;;;;;5054043;28;20040;-86
2021/11/01 06:21:14;;;;;;;9.00;1.80;;;11.30;99.90;;;;;;5035523;28;20171;-85
2021/11/01 06:23:47;;;;;;;9.60;1.90;;;11.30;99.90;;;;;;5054014;28;20055;-85
2021/11/01 06:26:17;;;;;;;6.17;1.67;;;11.20;99.90;;;;;;5036763;28;20120;-85
2021/11/01 06:29:19;;;;;;;8.30;1.47;;;11.20;99.90;;;;;;5036901;28;20055;-85
2021/11/01 06:43:09;;;;;;;11.10;1.90;;;11.20;99.90;;;;;;5056794;28;20040;-85
2021/11/01 07:17:59;;;;;;;6.40;1.30;;;11.30;99.90;;;;;;5044672;28;20120;-84
2021/11/01 09:06:16;;;;;;;6.43;1.60;;;12.00;99.90;;;;;;5067609;28;20507;-85
2021/11/01 09:19:44;;;;;;;11.97;2.00;;;12.10;99.90;;;;;;5051028;28;20035;-85
2021/11/01 09:26:53;;;;;;;12.13;1.55;;;12.20;99.90;;;;;;5066709;28;20040;-85
2021/11/01 09:29:42;;;;;;;10.18;1.70;;;12.20;99.90;;;;;;5066103;28;20025;-85
2021/11/01 09:37:59;;;;;;;6.35;1.30;;;12.30;99.90;;;;;;5056531;28;20033;-85
2021/11/01 09:43:12;;;;;;;7.75;1.60;;;12.30;99.90;;;;;;5075632;28;20139;-85
2021/11/01 09:45:38;;;;;;;;;;;12.30;99.90;;;;;;5055535;28;20021;-85
2021/11/01 09:48:06;;;;;;;10.00;1.63;;;12.40;99.90;;;;;;5056819;28;19908;-85
2021/11/01 09:50:34;;;;;;;7.57;1.45;;;12.40;99.90;;;;;;5042558;28;20389;-85
2021/11/01 09:53:02;;;;;;;8.50;1.30;;;12.40;99.90;;;;;;5042441;28;20100;-85
2021/11/01 09:56:05;;;;;;;10.37;1.83;;;12.40;99.90;;;;;;5042429;28;20043;-85
2021/11/01 10:01:21;;;;;;;7.10;1.20;;;12.40;99.90;;;;;;5075320;28;20083;-85
2021/11/01 10:03:49;;;;;;;8.65;2.25;;;12.50;99.90;;;;;;5076496;28;20040;-85
2021/11/01 10:06:23;;;;;;;9.05;1.83;;;12.50;99.90;;;;;;5060814;28;20119;-85
2021/11/01 10:08:59;;;;;;;8.60;1.52;;;12.60;99.90;;;;;;5059390;28;20048;-85
2021/11/01 10:11:37;;;;;;;5.97;2.00;;;12.60;99.90;;;;;;5075443;28;20033;-85
2021/11/01 10:14:05;;;;;;;6.03;1.23;;;12.60;99.90;;;;;;5060564;28;20119;-85
2021/11/01 10:19:32;;;;;;;8.10;1.67;;;12.70;99.90;;;;;;5056742;28;20108;-85
2021/11/01 10:22:01;;;;;;;5.65;1.42;;;12.80;99.90;;;;;;5070061;28;20093;-85
2021/11/01 10:24:28;;;;;;;;;;;12.70;99.90;;;;;;5037131;28;20032;-85
2021/11/01 10:26:56;;;;;;;8.50;1.30;;;12.80;99.90;;;;;;5036286;28;19954;-85
2021/11/01 10:29:23;;;;;;;5.10;1.95;;;12.80;99.90;;;;;;5051868;28;20033;-85
2021/11/01 10:31:49;;;;;;;6.00;1.10;;;12.80;99.90;;;;;;5035741;28;20029;-85
2021/11/01 10:34:15;;;;;;;8.73;1.20;;;12.80;99.90;;;;;;5052906;28;20115;-85
2021/11/01 10:36:45;;;;;;;5.90;1.20;;;12.90;99.90;;;;;;5036617;28;20036;-85
2021/11/01 10:39:19;;;;;;;8.85;1.70;;;12.90;99.90;;;;;;5035478;28;20114;-85
2021/11/01 10:42:00;;;;;;;6.93;1.40;;;12.90;99.90;;;;;;5068970;28;20033;-85
2021/11/01 11:12:14;;;;;;;6.65;1.58;;;13.30;99.90;;;;;;5068403;28;20025;-85
2021/11/01 11:27:57;;;;;;;5.15;1.00;;;13.50;99.90;;;;;;5050984;28;20000;-85
2021/11/01 11:47:47;;;;;;;6.22;1.10;;;13.60;99.90;;;;;;5068371;28;20036;-86
2021/11/01 11:50:22;;;;;;;5.50;1.48;;;13.60;99.90;;;;;;5035258;28;20142;-86
2021/11/01 11:52:48;;;;;;;5.15;1.00;;;13.70;99.50;;;;;;5051089;28;20075;-86
2021/11/01 11:55:27;;;;;;;8.25;1.08;;;13.70;98.90;;;;;;5052140;28;20028;-86
2021/11/01 11:58:04;;;;;;;4.30;1.23;;;13.70;99.50;;;;;;5035510;28;20331;-86
2021/11/01 12:00:35;;;;;;;5.47;2.50;;;13.70;99.30;;;;;;5066834;28;20052;-86
2021/11/01 12:03:13;;;;;;;12.30;2.35;;;13.80;99.90;;;;;;5035282;28;20044;-86
2021/11/01 12:05:46;;;;;;;4.93;1.50;;;13.80;99.70;;;;;;5068199;28;20033;-86
2021/11/01 12:19:38;;;;;;;4.70;1.10;;;13.90;98.10;;;;;;5061330;28;20041;-86
2021/11/01 12:22:11;;;;;;;7.60;1.40;;;14.00;98.00;;;;;;5070615;28;20033;-86
2021/11/01 12:24:46;;;;;;;4.35;1.08;;;13.90;98.60;;;;;;5038303;28;20115;-86
2021/11/01 12:27:12;;;;;;;11.10;2.08;;;13.90;98.10;;;;;;5066778;28;20476;-86
2021/11/01 12:29:38;;;;;;;4.20;0.95;;;13.90;98.40;;;;;;5050082;28;20025;-86
2021/11/01 12:32:13;;;;;;;7.00;1.30;;;13.80;97.70;;;;;;5067702;28;20051;-87
2021/11/01 12:35:05;;;;;;;7.82;1.30;;;13.80;98.00;;;;;;5052233;28;20155;-87
2021/11/01 12:37:39;;;;;;;5.53;1.27;;;13.80;98.30;;;;;;5035118;28;20040;-86
2021/11/01 12:57:14;;;;;;;3.15;0.80;;;13.90;97.20;;;;;;5065702;28;20109;-86
2021/11/01 12:59:45;;;;;;;3.45;0.90;;;13.80;97.20;;;;;;5032906;28;20025;-86
2021/11/01 13:02:53;;;;;;;6.22;1.20;;;13.90;97.60;;;;;;5033175;28;20132;-86
2021/11/01 13:05:22;;;;;;;6.88;1.00;;;13.90;97.10;;;;;;5049124;28;20028;-86
2021/11/01 13:10:37;;;;;;;4.95;1.10;;;13.80;97.60;;;;;;5065565;28;20522;-86
2021/11/01 13:18:49;;;;;;;6.32;1.33;;;13.60;98.00;;;;;;5069403;28;20067;-86
2021/11/01 13:21:19;;;;;;;5.57;1.70;;;13.50;98.30;;;;;;5035939;28;20045;-86
2021/11/01 13:24:00;;;;;;;5.20;1.00;;;13.50;98.70;;;;;;5052985;28;20132;-86
2021/11/01 13:34:49;;;;;;;4.07;1.20;;;13.50;98.60;;;;;;5065628;28;20064;-86
2021/11/01 13:39:58;;;;;;;8.52;1.40;;;13.60;99.00;;;;;;5064677;28;20358;-86
2021/11/01 13:42:24;;;;;;;6.40;1.00;;;13.60;98.80;;;;;;5048348;28;20029;-86
2021/11/01 13:44:50;;;;;;;6.13;1.60;;;13.60;98.30;;;;;;5031576;28;20033;-86
2021/11/01 13:47:17;;;;;;;6.80;1.42;;;13.60;98.00;;;;;;5031715;28;20132;-86
2021/11/01 13:49:47;;;;;;;7.55;1.58;;;13.60;97.80;;;;;;5031536;28;20541;-86
2021/11/01 13:55:23;;;;;;;5.82;0.90;;;13.50;98.00;;;;;;5065384;28;20138;-85
2021/11/01 13:57:51;;;;;;;3.95;1.17;;;13.50;97.80;;;;;;5047451;28;20075;-86
2021/11/01 14:03:25;;;;;;;4.93;0.80;;;13.60;97.80;;;;;;5064410;28;20036;-86
2021/11/01 14:11:37;;;;;;;3.67;0.85;;;13.60;97.30;;;;;;5064229;28;20566;-86
2021/11/01 14:30:51;;;;;;;4.45;1.10;;;13.60;97.80;;;;;;5063721;28;20037;-86
2021/11/01 15:00:32;;;;;;;3.10;0.95;;;13.40;98.50;;;;;;5067214;28;20105;-86
2021/11/01 15:16:15;;;;;;;3.78;1.00;;;13.40;98.30;;;;;;5066983;28;20043;-86
2021/11/01 15:30:59;;;;;;;4.97;1.10;;;13.30;99.00;;;;;;5051708;28;20025;-86
2021/11/01 16:19:12;;;;;;;7.60;1.27;;;13.00;99.90;;;;;;4973206;28;20065;-87
2021/11/01 16:21:38;;;;;;;4.63;1.40;;;13.00;99.90;;;;;;5033609;28;20127;-86
2021/11/01 16:24:04;;;;;;;4.38;0.95;;;13.00;99.90;;;;;;5033809;28;20511;-86
2021/11/01 16:26:33;;;;;;;6.93;1.80;;;13.00;99.90;;;;;;5066881;28;20396;-86
2021/11/01 16:29:21;;;;;;;7.82;1.10;;;13.00;99.90;;;;;;5051245;28;20033;-86
2021/11/01 16:31:55;;;;;;;4.82;1.17;;;13.10;99.90;;;;;;5049635;28;20064;-86
2021/11/01 16:34:30;;;;;;;4.60;1.02;;;13.00;99.90;;;;;;5067247;28;20087;-86
2021/11/01 16:39:47;;;;;;;7.07;1.45;;;13.00;99.90;;;;;;5066243;28;20468;-86
2021/11/01 16:42:22;;;;;;;5.68;1.13;;;13.00;99.90;;;;;;5032198;28;20044;-86
2021/11/01 16:44:49;;;;;;;3.70;1.20;;;13.00;99.90;;;;;;5032877;28;20190;-86
2021/11/01 16:47:16;;;;;;;4.70;1.15;;;12.90;99.90;;;;;;5031886;28;20029;-86
2021/11/01 16:49:43;;;;;;;7.45;1.33;;;12.90;99.90;;;;;;5049516;28;20033;-87
2021/11/01 16:52:15;;;;;;;4.43;1.05;;;12.90;99.90;;;;;;5066059;28;20477;-86
2021/11/01 16:54:47;;;;;;;6.63;1.20;;;12.90;99.90;;;;;;5033225;28;20112;-86
2021/11/01 16:57:47;;;;;;;6.93;1.33;;;12.90;99.90;;;;;;5031891;28;20033;-86
2021/11/01 17:04:55;;;;;;;6.72;1.35;;;12.90;99.90;;;;;;5051088;28;20084;-86
2021/11/01 17:35:03;;;;;;;5.45;1.90;;;12.50;99.90;;;;;;5050394;28;20049;-86
2021/11/01 17:38:11;;;;;;;6.55;1.35;;;12.50;99.90;;;;;;5051018;28;20025;-86
2021/11/01 18:41:10;;;;;;;6.38;2.30;;;11.60;99.90;;;;;;5070042;28;20055;-84
2021/11/01 18:51:31;;;;;;;7.90;2.17;;;11.50;99.90;;;;;;5071059;28;20062;-85
2021/11/01 18:54:21;;;;;;;;;;;11.40;99.90;;;;;;5055525;28;20497;-84
2021/11/01 18:56:49;;;;;;;8.67;2.33;;;11.40;99.90;;;;;;5036842;28;20023;-84
2021/11/01 18:59:16;;;;;;;9.27;2.50;;;11.40;99.90;;;;;;5053556;28;20035;-86
2021/11/01 19:01:44;;;;;;;7.90;2.00;;;11.40;99.90;;;;;;5036233;28;20639;-86
2021/11/01 19:04:28;;;;;;;8.93;2.42;;;11.40;99.90;;;;;;5037301;28;20029;-85
2021/11/01 20:04:51;;;;;;;;;;;11.70;99.90;;;;;;5051719;28;20037;-85
2021/11/01 20:10:37;;;;;;;6.27;1.70;;;11.70;99.90;;;;;;5050568;28;20120;-85
2021/11/01 21:25:54;;;;;;;7.40;2.87;;;11.10;99.90;;;;;;5029836;28;20045;-84
2021/11/01 21:28:21;;;;;;;9.27;2.83;;;11.00;99.90;;;;;;5013297;28;20057;-84
2021/11/01 21:30:48;;;;;;;8.13;2.33;;;10.90;99.90;;;;;;5012197;28;20144;-84
2021/11/01 21:33:22;;;;;;;7.97;2.23;;;10.90;99.90;;;;;;5029495;28;20042;-83
2021/11/01 21:35:51;;;;;;;8.37;2.70;;;10.90;99.90;;;;;;5029240;28;20064;-84
2021/11/01 21:38:17;;;;;;;6.88;2.30;;;10.80;99.90;;;;;;5029532;28;20034;-84
2021/11/01 21:40:45;;;;;;;9.27;2.60;;;10.90;99.90;;;;;;5011589;28;20037;-84
2021/11/01 21:43:11;;;;;;;9.43;2.80;;;10.90;99.90;;;;;;5033462;28;20036;-84
2021/11/01 21:45:37;;;;;;;12.27;2.93;;;10.80;99.90;;;;;;5035855;28;20029;-83
2021/11/01 21:48:03;;;;;;;6.93;2.27;;;10.80;99.90;;;;;;5019401;28;20028;-83
2021/11/01 21:50:29;;;;;;;8.67;2.37;;;10.80;99.90;;;;;;5035187;28;20516;-84
2021/11/01 21:52:58;;;;;;;6.17;2.33;;;10.80;99.90;;;;;;5037422;28;20021;-84
2021/11/01 21:55:25;;;;;;;;;;;10.80;99.90;;;;;;5019745;28;20037;-84
2021/11/01 21:57:58;;;;;;;9.37;2.40;;;10.80;99.90;;;;;;5035778;28;19955;-84
2021/11/01 22:17:07;;;;;;;7.30;2.10;;;10.60;99.90;;;;;;5035441;28;20439;-84
2021/11/01 22:38:49;;;;;;;6.77;2.20;;;10.50;99.90;;;;;;5035951;28;20032;-83
2021/11/01 22:57:05;;;;;;;6.53;1.90;;;10.40;99.90;;;;;;5032384;28;20468;-84
2021/11/01 22:59:31;;;;;;;7.17;2.47;;;10.30;99.90;;;;;;5031576;28;20109;-84
2021/11/01 23:01:57;;;;;;;5.90;2.13;;;10.30;99.90;;;;;;5015661;28;20148;-84
2021/11/01 23:04:31;;;;;;;7.70;2.07;;;10.20;99.90;;;;;;5032171;28;20517;-85
2021/11/01 23:31:37;;;;;;;7.77;2.57;;;9.80;99.90;;;;;;5031380;28;20423;-84
2021/11/01 23:34:07;;;;;;;7.67;2.77;;;9.80;99.90;;;;;;5031739;28;20049;-83
2021/11/01 23:36:34;;;;;;;7.20;3.10;;;9.80;99.90;;;;;;5032894;28;20037;-83
2021/11/01 23:39:02;;;;;;;8.20;1.87;;;9.80;99.90;;;;;;5031025;28;20064;-84
2021/11/01 23:41:28;;;;;;;11.07;2.30;;;9.80;99.90;;;;;;5032514;28;20059;-84
2021/11/01 23:43:54;;;;;;;7.93;1.93;;;9.80;99.90;;;;;;5014969;28;20545;-83
2021/11/01 23:46:21;;;;;;;8.50;2.10;;;9.80;99.90;;;;;;5030911;28;20033;-84
2021/11/01 23:48:47;;;;;;;7.00;2.00;;;9.80;99.90;;;;;;5014542;28;20029;-83
2021/11/01 23:51:16;;;;;;;8.63;2.47;;;9.80;99.90;;;;;;5030671;28;20033;-85
2021/11/01 23:54:00;;;;;;;9.37;2.00;;;9.80;99.90;;;;;;5014654;28;20025;-84
2021/11/01 23:56:26;;;;;;;8.93;2.33;;;9.80;99.90;;;;;;5014516;28;20034;-83
2021/11/01 23:58:52;;;;;;;6.57;2.10;;;9.80;99.90;;;;;;5030771;28;20025;-83
